Time;durP1;ratioP1;P1;durP2;ratioP2;P2;SDS_P1;SDS_P2;PMS_P1;PMS_P2;Temp;Humidity;BMP_temperature;BMP_pressure;BME280_temperature;BME280_humidity;BME280_pressure;Samples;Min_cycle;Max_cycle;Signal;HPM_P1;HPM_P2
2023/07/29 00:00:27;;;;;;;3.57;3.27;;;19.80;99.90;;;19.61;82.65;100150.56;5036473;28;20248;-76
2023/07/29 00:02:59;;;;;;;3.50;3.20;;;19.80;99.90;;;19.64;82.48;100155.53;5036145;28;20282;-76
2023/07/29 00:05:31;;;;;;;3.43;2.83;;;19.80;99.90;;;19.60;82.86;100148.91;5035932;28;20677;-76
2023/07/29 00:08:03;;;;;;;3.20;2.90;;;19.80;99.90;;;19.62;82.81;100148.69;5036339;28;20198;-76
2023/07/29 00:10:38;;;;;;;3.10;2.73;;;19.80;99.90;;;19.61;82.68;100149.72;5035939;28;20292;-76
2023/07/29 00:13:10;;;;;;;3.83;3.00;;;19.80;99.90;;;19.63;82.91;100145.72;5035931;28;20277;-76
2023/07/29 00:15:43;;;;;;;3.73;2.40;;;19.80;99.90;;;19.62;82.85;100144.03;5036122;28;20314;-76
2023/07/29 00:18:15;;;;;;;3.17;2.87;;;19.80;99.90;;;19.61;82.44;100150.56;5036163;28;20277;-76
2023/07/29 00:20:47;;;;;;;3.00;2.63;;;19.80;99.90;;;19.62;82.49;100149.47;5035800;28;20275;-76
2023/07/29 00:23:21;;;;;;;2.67;2.47;;;19.80;99.90;;;19.58;82.83;100140.16;5036059;28;20199;-76
2023/07/29 00:25:53;;;;;;;2.60;2.40;;;19.80;99.90;;;19.57;83.23;100162.13;5036567;28;20235;-76
2023/07/29 00:28:25;;;;;;;3.27;2.37;;;19.80;99.90;;;19.50;83.29;100159.50;5034926;28;20641;-76
2023/07/29 00:30:58;;;;;;;3.73;2.43;;;19.70;99.90;;;19.47;83.50;100161.84;5035622;28;20191;-76
2023/07/29 00:33:30;;;;;;;2.53;2.00;;;19.70;99.90;;;19.51;83.21;100157.63;5035827;28;20195;-76
2023/07/29 00:36:02;;;;;;;2.47;2.20;;;19.70;99.90;;;19.54;83.15;100157.97;5035757;28;20309;-76
2023/07/29 00:38:34;;;;;;;3.17;2.37;;;19.80;99.90;;;19.52;83.62;100164.72;5035772;28;20637;-76
2023/07/29 00:41:07;;;;;;;5.20;2.47;;;19.80;99.90;;;19.50;83.52;100162.22;5036521;28;20229;-76
2023/07/29 00:43:39;;;;;;;2.60;2.23;;;19.80;99.90;;;19.50;83.07;100161.38;5035472;28;20305;-76
2023/07/29 00:46:13;;;;;;;2.40;2.00;;;19.70;99.90;;;19.47;83.52;100164.56;5035124;28;20227;-76
2023/07/29 00:48:45;;;;;;;2.50;2.30;;;19.70;99.90;;;19.45;83.70;100156.63;5035286;28;20191;-76
2023/07/29 00:51:17;;;;;;;2.43;2.23;;;19.70;99.90;;;19.47;82.68;100157.25;5035753;28;20199;-76
2023/07/29 00:53:49;;;;;;;2.37;2.10;;;19.70;99.90;;;19.42;83.52;100154.38;5035499;28;20280;-76
2023/07/29 00:56:21;;;;;;;2.53;2.30;;;19.70;99.90;;;19.42;83.56;100146.25;5035076;28;20666;-76
2023/07/29 00:58:58;;;;;;;2.27;2.17;;;19.60;99.90;;;19.43;82.13;100138.94;5035626;28;20206;-76
2023/07/29 01:01:32;;;;;;;2.40;2.20;;;19.70;99.90;;;19.43;82.51;100144.38;5035371;28;20273;-76
2023/07/29 01:04:04;;;;;;;3.50;2.40;;;19.60;99.90;;;19.29;83.46;100149.13;5035008;28;20652;-76
2023/07/29 01:06:51;;;;;;;2.60;2.40;;;19.50;99.90;;;19.25;84.11;100156.06;5035042;28;20720;-76
2023/07/29 01:09:31;;;;;;;2.50;2.30;;;19.50;99.90;;;19.24;83.77;100152.56;5035169;28;20278;-76
2023/07/29 01:12:15;;;;;;;2.63;2.43;;;19.40;99.90;;;19.26;83.58;100144.16;5034847;28;20289;-75
2023/07/29 01:14:56;;;;;;;2.37;2.10;;;19.50;99.90;;;19.24;83.52;100146.31;5034965;28;20326;-76
2023/07/29 01:17:41;;;;;;;2.47;2.27;;;19.50;99.90;;;19.26;83.52;100144.16;5035008;28;20274;-76
2023/07/29 01:20:17;;;;;;;2.50;2.30;;;19.50;99.90;;;19.22;83.63;100149.22;5035006;28;20199;-76
2023/07/29 01:22:49;;;;;;;2.60;2.40;;;19.50;99.90;;;19.17;83.98;100140.97;5034955;28;20226;-76
2023/07/29 01:25:22;;;;;;;2.87;2.30;;;19.40;99.90;;;19.10;84.18;100147.53;5034780;28;20289;-76
2023/07/29 01:27:56;;;;;;;3.40;2.30;;;19.40;99.90;;;19.12;84.28;100143.53;5034507;28;20245;-76
2023/07/29 01:30:37;;;;;;;2.50;2.30;;;19.40;99.90;;;19.10;84.25;100142.13;5034735;28;20213;-77
2023/07/29 01:33:19;;;;;;;3.40;2.60;;;19.40;99.90;;;19.08;84.15;100142.34;5034703;28;20237;-77
2023/07/29 01:35:58;;;;;;;2.63;2.27;;;19.40;99.90;;;19.04;84.33;100134.91;5034573;28;20311;-74
2023/07/29 01:38:37;;;;;;;2.60;2.40;;;19.30;99.90;;;18.98;84.54;100127.66;5034847;28;20286;-76
2023/07/29 01:41:14;;;;;;;3.03;2.37;;;19.20;99.90;;;19.02;84.46;100126.16;5033991;28;20245;-76
2023/07/29 01:43:46;;;;;;;2.43;2.23;;;19.30;99.90;;;19.03;84.23;100128.66;5034308;28;20245;-76
2023/07/29 01:46:18;;;;;;;2.50;2.30;;;19.30;99.90;;;19.04;83.93;100115.91;5034317;28;20238;-76
2023/07/29 01:48:50;;;;;;;4.93;2.80;;;19.20;99.90;;;19.04;84.04;100124.84;5034461;28;20230;-77
2023/07/29 01:51:22;;;;;;;2.90;2.60;;;19.30;99.90;;;19.07;83.34;100127.13;5034422;28;20187;-77
2023/07/29 01:53:55;;;;;;;2.40;2.20;;;19.30;99.90;;;19.04;83.81;100124.06;5034307;28;20195;-76
2023/07/29 01:56:28;;;;;;;2.63;2.10;;;19.20;99.90;;;19.01;83.97;100121.78;5033899;28;20269;-76
2023/07/29 01:59:00;;;;;;;2.67;2.40;;;19.20;99.90;;;19.01;83.87;100127.19;5034236;28;20218;-76
2023/07/29 02:01:32;;;;;;;2.63;2.43;;;19.20;99.90;;;19.02;83.70;100126.16;5034164;28;20283;-76
2023/07/29 02:04:04;;;;;;;3.20;2.40;;;19.30;99.90;;;19.02;84.40;100126.97;5034142;28;20191;-77
2023/07/29 02:06:36;;;;;;;2.53;2.30;;;19.20;99.90;;;19.01;84.11;100129.91;5034143;28;20288;-77
2023/07/29 02:09:08;;;;;;;2.40;2.20;;;19.20;99.90;;;19.02;84.15;100123.44;5034251;28;20195;-77
2023/07/29 02:11:41;;;;;;;2.60;2.40;;;19.20;99.90;;;19.03;83.77;100128.66;5033729;28;20613;-77
2023/07/29 02:14:13;;;;;;;2.30;2.10;;;19.30;99.90;;;19.04;84.04;100118.63;5034001;28;20215;-77
2023/07/29 02:16:45;;;;;;;4.83;2.33;;;19.30;99.90;;;19.04;84.07;100113.19;5033659;28;20187;-77
2023/07/29 02:19:17;;;;;;;2.43;2.20;;;19.20;99.90;;;19.01;84.29;100109.03;5034024;28;20220;-77
2023/07/29 02:21:49;;;;;;;2.73;2.53;;;19.20;99.90;;;19.02;84.10;100104.44;5033848;28;20194;-77
2023/07/29 02:24:21;;;;;;;2.60;2.40;;;19.20;99.90;;;19.02;84.32;100110.69;5033762;28;20249;-77
2023/07/29 02:26:54;;;;;;;2.43;2.10;;;19.30;99.90;;;19.03;83.99;100106.94;5033746;28;20584;-77
2023/07/29 02:29:26;;;;;;;2.30;2.20;;;19.20;99.90;;;18.98;84.53;100114.94;5033705;28;20286;-77
2023/07/29 02:31:58;;;;;;;2.67;2.47;;;19.20;99.90;;;18.99;83.82;100107.63;5033438;28;20285;-76
2023/07/29 02:34:30;;;;;;;3.30;2.53;;;19.20;99.90;;;18.95;84.51;100114.56;5033625;28;20265;-76
2023/07/29 02:37:02;;;;;;;2.20;2.00;;;19.20;99.90;;;18.96;84.11;100110.78;5033643;28;20269;-76
2023/07/29 02:39:34;;;;;;;2.47;2.30;;;19.20;99.90;;;18.96;84.38;100105.38;5033675;28;20274;-76
2023/07/29 02:42:08;;;;;;;2.60;2.40;;;19.20;99.90;;;18.96;84.40;100105.38;5033532;28;20249;-76
2023/07/29 02:44:41;;;;;;;4.70;2.33;;;19.20;99.90;;;18.95;84.37;100103.72;5033465;28;20325;-77
2023/07/29 02:47:12;;;;;;;2.43;2.00;;;19.20;99.90;;;18.96;84.49;100099.94;5033695;28;20214;-76
2023/07/29 02:49:45;;;;;;;3.17;2.50;;;19.20;99.90;;;18.94;84.46;100097.44;5033476;28;20240;-76
2023/07/29 02:52:16;;;;;;;2.70;2.50;;;19.20;99.90;;;18.94;84.52;100099.38;5033148;28;20253;-77
2023/07/29 02:54:48;;;;;;;3.90;2.30;;;19.20;99.90;;;18.93;84.85;100098.53;5033551;28;20313;-77
2023/07/29 02:57:21;;;;;;;2.97;2.63;;;19.20;99.90;;;18.94;84.83;100097.44;5033479;28;20191;-77
2023/07/29 02:59:54;;;;;;;3.93;2.37;;;19.20;99.90;;;18.94;85.35;100091.22;5033476;28;20197;-77
2023/07/29 03:02:25;;;;;;;2.40;2.20;;;19.20;99.90;;;18.92;85.36;100093.31;5033917;28;20594;-77
2023/07/29 03:04:57;;;;;;;2.60;2.40;;;19.10;99.90;;;18.90;85.30;100100.88;5033315;28;20237;-77
2023/07/29 03:07:29;;;;;;;3.50;2.30;;;19.10;99.90;;;18.89;85.08;100099.22;5033035;28;20770;-76
2023/07/29 03:10:01;;;;;;;3.20;2.53;;;19.10;99.90;;;18.88;85.53;100098.38;5033302;28;20219;-77
2023/07/29 03:12:34;;;;;;;2.50;2.30;;;19.10;99.90;;;18.87;85.54;100101.34;5033306;28;20241;-77
2023/07/29 03:15:07;;;;;;;3.90;2.20;;;19.10;99.90;;;18.87;85.23;100109.47;5033517;28;20309;-76
2023/07/29 03:17:39;;;;;;;2.33;2.10;;;19.10;99.90;;;18.86;85.17;100105.94;5033054;28;20716;-76
2023/07/29 03:20:12;;;;;;;2.93;2.03;;;19.10;99.90;;;18.82;85.72;100109.31;5033244;28;20191;-76
2023/07/29 03:22:44;;;;;;;2.30;2.10;;;19.10;99.90;;;18.78;86.50;100106.22;5033189;28;20222;-77
2023/07/29 03:25:16;;;;;;;4.90;2.03;;;19.00;99.90;;;18.79;85.68;100105.19;5033123;28;20313;-76
2023/07/29 03:27:49;;;;;;;2.40;2.20;;;19.10;99.90;;;18.80;86.02;100101.44;5032879;28;20639;-77
2023/07/29 03:30:25;;;;;;;2.73;2.20;;;19.10;99.90;;;18.82;85.87;100103.91;5035352;28;20222;-75
2023/07/29 03:32:57;;;;;;;2.57;2.23;;;19.10;99.90;;;18.80;86.10;100100.59;5035978;28;20230;-74
2023/07/29 03:35:29;;;;;;;3.23;2.27;;;19.10;99.90;;;18.78;86.42;100099.97;5038294;28;20230;-76
2023/07/29 03:38:01;;;;;;;2.20;2.00;;;19.00;99.90;;;18.80;86.10;100106.03;5032947;28;20707;-76
2023/07/29 03:40:33;;;;;;;3.17;2.27;;;19.10;99.90;;;18.78;86.46;100098.09;5032837;28;20645;-76
2023/07/29 03:43:07;;;;;;;2.07;1.70;;;19.00;99.90;;;18.77;87.00;100095.63;5032807;28;20218;-77
2023/07/29 03:45:40;;;;;;;2.40;2.30;;;19.00;99.90;;;18.75;86.79;100093.13;5032555;28;20779;-77
2023/07/29 03:48:11;;;;;;;2.60;2.10;;;19.00;99.90;;;18.74;86.76;100083.34;5032688;28;20645;-77
2023/07/29 03:50:43;;;;;;;2.20;2.00;;;19.00;99.90;;;18.77;86.97;100087.50;5032653;28;20646;-77
2023/07/29 03:53:16;;;;;;;3.03;2.60;;;19.00;99.90;;;18.76;87.43;100094.81;5032643;28;20561;-75
2023/07/29 03:55:49;;;;;;;2.10;1.90;;;19.00;99.90;;;18.64;88.27;100094.72;5032877;28;20313;-77
2023/07/29 03:58:25;;;;;;;3.10;2.20;;;18.90;99.90;;;18.66;87.90;100089.91;5032893;28;20244;-77
2023/07/29 04:00:57;;;;;;;2.30;2.10;;;18.90;99.90;;;18.67;87.50;100091.56;5032511;28;20707;-77
2023/07/29 04:03:29;;;;;;;2.60;2.40;;;18.90;99.90;;;18.62;88.19;100099.56;5032847;28;20282;-77
2023/07/29 04:06:05;;;;;;;2.50;2.30;;;18.90;99.90;;;18.64;87.66;100092.03;5036286;28;20222;-77
2023/07/29 04:08:37;;;;;;;3.23;2.20;;;18.90;99.90;;;18.69;87.87;100080.50;5036101;28;20562;-76
2023/07/29 04:11:09;;;;;;;3.93;2.23;;;18.90;99.90;;;18.69;87.96;100084.03;5036379;28;20197;-76
2023/07/29 04:13:42;;;;;;;3.80;2.20;;;19.00;99.90;;;18.69;87.81;100078.63;5036263;28;20273;-76
2023/07/29 04:16:14;;;;;;;2.10;1.90;;;19.00;99.90;;;18.70;88.04;100077.53;5036185;28;20297;-77
2023/07/29 04:18:46;;;;;;;2.67;2.10;;;19.00;99.90;;;18.71;87.79;100076.50;5036126;28;20264;-77
2023/07/29 04:21:18;;;;;;;2.33;2.00;;;19.00;99.90;;;18.73;87.57;100085.22;5036115;28;20187;-77
2023/07/29 04:23:50;;;;;;;2.40;2.20;;;19.00;99.90;;;18.73;87.50;100079.78;5036049;28;20190;-77
2023/07/29 04:26:22;;;;;;;3.40;2.50;;;19.00;99.90;;;18.72;87.45;100072.75;5035908;28;20231;-77
2023/07/29 04:28:55;;;;;;;3.20;2.20;;;19.00;99.90;;;18.76;87.39;100075.00;5036019;28;20282;-77
2023/07/29 04:31:27;;;;;;;2.37;2.17;;;19.00;99.90;;;18.72;88.37;100078.16;5035932;28;20191;-77
2023/07/29 04:33:59;;;;;;;2.83;2.63;;;19.00;99.90;;;18.66;88.84;100072.81;5035914;28;20214;-77
2023/07/29 04:36:31;;;;;;;2.40;2.20;;;18.90;99.90;;;18.67;88.84;100069.03;5035768;28;20288;-77
2023/07/29 04:39:03;;;;;;;2.93;2.50;;;18.90;99.90;;;18.67;88.87;100067.16;5036077;28;20200;-77
2023/07/29 04:41:35;;;;;;;2.10;2.00;;;18.90;99.90;;;18.68;89.04;100063.41;5036432;28;20203;-76
2023/07/29 04:44:08;;;;;;;3.03;2.27;;;19.00;99.90;;;18.67;89.27;100059.03;5035605;28;20250;-76
2023/07/29 04:46:40;;;;;;;2.50;2.30;;;18.90;99.90;;;18.70;89.28;100050.44;5035691;28;20321;-76
2023/07/29 04:49:12;;;;;;;2.37;2.17;;;19.00;99.90;;;18.68;88.84;100046.31;5035630;28;20187;-76
2023/07/29 04:51:44;;;;;;;2.37;2.23;;;19.00;99.90;;;18.68;88.79;100054.44;5035612;28;20273;-76
2023/07/29 04:54:16;;;;;;;2.73;2.40;;;18.90;99.90;;;18.69;88.73;100051.50;5035585;28;20226;-76
2023/07/29 04:56:48;;;;;;;2.60;2.40;;;19.00;99.90;;;18.70;88.15;100053.13;5035514;28;20194;-76
2023/07/29 04:59:21;;;;;;;3.20;2.40;;;19.00;99.90;;;18.70;88.57;100058.56;5035182;28;20676;-76
2023/07/29 05:01:53;;;;;;;2.80;2.60;;;19.00;99.90;;;18.70;88.68;100064.00;5035511;28;20269;-76
2023/07/29 05:04:26;;;;;;;3.53;2.50;;;19.00;99.90;;;18.65;89.39;100063.03;5035363;28;20214;-77
2023/07/29 05:06:58;;;;;;;3.37;2.50;;;18.90;99.90;;;18.58;89.94;100068.53;5035506;28;20631;-77
2023/07/29 05:09:29;;;;;;;2.80;2.60;;;18.90;99.90;;;18.53;90.44;100062.97;5035291;28;20620;-77
2023/07/29 05:12:01;;;;;;;3.53;2.40;;;18.80;99.90;;;18.52;90.62;100060.50;5035226;28;20306;-77
2023/07/29 05:14:35;;;;;;;2.90;2.63;;;18.80;99.90;;;18.55;89.87;100060.88;5034878;28;20198;-77
2023/07/29 05:17:08;;;;;;;3.23;2.93;;;18.90;99.90;;;18.51;90.50;100062.38;5035096;28;20250;-76
2023/07/29 05:19:40;;;;;;;2.70;2.50;;;18.80;99.90;;;18.51;90.49;100059.66;5035089;28;20617;-76
2023/07/29 05:22:12;;;;;;;2.60;2.40;;;18.80;99.90;;;18.48;90.64;100054.69;5034577;28;20639;-76
2023/07/29 05:24:44;;;;;;;3.50;2.93;;;18.80;99.90;;;18.46;91.08;100066.81;5034982;28;20227;-77
2023/07/29 05:27:17;;;;;;;3.93;2.70;;;18.80;99.90;;;18.44;91.43;100067.03;5034483;28;20321;-76
2023/07/29 05:29:50;;;;;;;2.67;2.47;;;18.80;99.90;;;18.47;91.93;100063.84;5034817;28;20278;-76
2023/07/29 05:32:22;;;;;;;3.00;2.80;;;18.80;99.90;;;18.49;91.96;100056.31;5034768;28;20294;-76
2023/07/29 05:34:54;;;;;;;5.73;2.80;;;18.80;99.90;;;18.50;92.18;100058.00;5035507;28;20227;-76
2023/07/29 05:37:26;;;;;;;2.60;2.40;;;18.80;99.90;;;18.56;91.85;100053.56;5034828;28;20211;-76
2023/07/29 05:39:59;;;;;;;2.57;2.37;;;18.80;99.90;;;18.58;92.19;100060.41;5034772;28;20283;-76
2023/07/29 05:42:31;;;;;;;3.40;2.47;;;18.90;99.90;;;18.59;92.72;100067.50;5034284;28;20746;-76
2023/07/29 05:45:04;;;;;;;3.10;2.60;;;18.90;99.90;;;18.59;92.34;100056.66;5034472;28;20321;-76
2023/07/29 05:47:36;;;;;;;4.30;2.30;;;18.90;99.90;;;18.60;93.15;100052.84;5034377;28;20856;-77
2023/07/29 05:50:10;;;;;;;3.93;2.60;;;18.90;99.90;;;18.60;93.18;100047.44;5034707;28;20209;-77
2023/07/29 05:52:42;;;;;;;3.03;2.70;;;18.90;99.90;;;18.57;93.14;100047.91;5034192;28;20238;-76
2023/07/29 05:55:14;;;;;;;3.20;3.00;;;19.00;99.90;;;18.56;93.09;100035.38;5034274;28;20227;-77
2023/07/29 05:57:46;;;;;;;5.43;3.43;;;18.90;99.90;;;18.56;93.52;100029.97;5034338;28;20224;-75
2023/07/29 06:00:20;;;;;;;4.37;2.60;;;18.90;99.90;;;18.58;93.39;100033.31;5034252;28;20195;-76
2023/07/29 06:02:52;;;;;;;5.07;2.90;;;18.80;99.90;;;18.59;94.29;100032.25;5034235;28;20198;-76
2023/07/29 06:05:24;;;;;;;3.03;2.60;;;18.90;99.90;;;18.61;94.60;100034.72;5034078;28;20317;-76
2023/07/29 06:07:56;;;;;;;4.63;2.83;;;18.90;99.90;;;18.62;94.73;100029.06;5034086;28;20265;-76
2023/07/29 06:10:28;;;;;;;3.70;2.70;;;18.90;99.90;;;18.64;94.87;100032.38;5033739;28;20657;-76
2023/07/29 06:13:00;;;;;;;2.60;2.40;;;18.90;99.90;;;18.66;94.65;100022.13;5034021;28;20237;-76
2023/07/29 06:15:34;;;;;;;2.93;2.63;;;19.00;99.90;;;18.69;95.87;100023.56;5033845;28;20753;-77
2023/07/29 06:18:06;;;;;;;3.17;2.87;;;19.00;99.90;;;18.71;95.12;100035.81;5033995;28;20282;-77
2023/07/29 06:20:38;;;;;;;3.50;2.73;;;19.00;99.90;;;18.73;96.33;100039.13;5033973;28;20223;-76
2023/07/29 06:23:11;;;;;;;2.83;2.50;;;19.10;99.90;;;18.73;96.95;100035.59;5034098;28;20198;-77
2023/07/29 06:25:43;;;;;;;3.00;2.70;;;19.00;99.90;;;18.74;97.13;100038.06;5033967;28;20318;-77
2023/07/29 06:28:15;;;;;;;2.80;2.60;;;19.10;99.90;;;18.76;97.35;100034.31;5032957;28;20280;-77
2023/07/29 06:30:48;;;;;;;2.97;2.60;;;19.10;99.90;;;18.79;97.17;100033.84;5033530;28;20649;-76
2023/07/29 06:33:20;;;;;;;4.80;3.37;;;19.10;99.90;;;18.80;96.68;100025.50;5041148;28;20194;-77
2023/07/29 06:35:52;;;;;;;3.10;2.80;;;19.10;99.90;;;18.82;97.63;100033.38;5035267;28;20328;-75
2023/07/29 06:38:24;;;;;;;4.73;2.77;;;19.10;99.90;;;18.81;97.55;100040.69;5034197;28;20230;-76
2023/07/29 06:40:56;;;;;;;3.93;3.40;;;19.10;99.90;;;18.78;98.22;100048.44;5033577;28;20717;-76
2023/07/29 06:43:28;;;;;;;6.10;3.33;;;19.10;99.90;;;18.73;98.98;100049.97;5033425;28;20305;-76
2023/07/29 06:46:01;;;;;;;6.33;3.30;;;19.10;99.90;;;18.78;99.48;100051.16;5033130;28;20673;-76
2023/07/29 06:48:33;;;;;;;3.43;3.10;;;19.10;99.90;;;18.78;98.71;100054.72;5033734;28;20298;-77
2023/07/29 06:51:05;;;;;;;3.63;3.20;;;19.10;99.90;;;18.82;99.48;100055.06;5033481;28;20230;-77
2023/07/29 06:53:37;;;;;;;3.40;3.07;;;19.10;99.90;;;18.85;99.41;100066.28;5033214;28;20230;-77
2023/07/29 06:56:08;;;;;;;3.73;3.33;;;19.20;99.90;;;18.88;100.00;100059.56;5033420;28;20226;-77
2023/07/29 06:58:40;;;;;;;3.60;3.30;;;19.20;99.90;;;18.91;100.00;100067.25;5033423;28;20210;-77
2023/07/29 07:01:14;;;;;;;4.70;3.30;;;19.20;99.90;;;18.93;100.00;100060.56;5033408;28;20735;-76
2023/07/29 07:03:46;;;;;;;3.70;3.40;;;19.20;99.90;;;18.95;100.00;100065.72;5033413;28;20209;-77
2023/07/29 07:06:18;;;;;;;3.33;2.97;;;19.30;99.90;;;19.01;100.00;100064.78;5033230;28;20235;-76
2023/07/29 07:08:50;;;;;;;4.27;2.87;;;19.40;99.90;;;19.03;100.00;100068.97;5033306;28;20242;-76
2023/07/29 07:11:21;;;;;;;3.83;3.43;;;19.30;99.90;;;19.05;100.00;100066.00;5033268;28;20186;-76
2023/07/29 07:13:53;;;;;;;3.20;2.90;;;19.40;99.90;;;19.04;100.00;100058.94;5033343;28;20218;-77
2023/07/29 07:16:29;;;;;;;6.23;3.20;;;19.40;99.90;;;19.10;100.00;100058.00;5033384;28;20222;-77
2023/07/29 07:19:01;;;;;;;3.87;2.83;;;19.50;99.90;;;19.08;100.00;100065.53;5032982;28;20580;-77
2023/07/29 07:21:33;;;;;;;3.03;2.83;;;19.50;99.90;;;19.09;100.00;100067.19;5032909;28;20591;-76
2023/07/29 07:24:05;;;;;;;4.57;2.80;;;19.40;99.90;;;19.07;99.50;100069.31;5033269;28;20278;-76
2023/07/29 07:26:38;;;;;;;3.97;3.10;;;19.40;99.90;;;19.13;100.00;100068.38;5033232;28;20339;-76
2023/07/29 07:29:10;;;;;;;3.33;3.03;;;19.50;99.90;;;19.11;99.88;100062.38;5033036;28;20622;-76
2023/07/29 07:31:50;;;;;;;6.23;3.30;;;19.50;99.90;;;19.13;100.00;100068.38;5033146;28;20281;-76
2023/07/29 07:34:22;;;;;;;2.97;2.77;;;19.50;99.90;;;19.17;100.00;100062.28;5032929;28;20195;-76
2023/07/29 07:36:54;;;;;;;3.00;2.80;;;19.50;99.90;;;19.16;99.65;100057.91;5033614;28;20195;-77
2023/07/29 07:39:27;;;;;;;3.47;2.80;;;19.50;99.90;;;19.22;100.00;100056.13;5036999;28;20241;-77
2023/07/29 07:41:59;;;;;;;2.93;2.50;;;19.60;99.90;;;19.19;98.48;100062.03;5036520;28;20656;-77
2023/07/29 07:44:31;;;;;;;2.70;2.47;;;19.60;99.90;;;19.21;98.48;100054.50;5036738;28;20198;-77
2023/07/29 07:47:05;;;;;;;3.10;2.90;;;19.60;99.90;;;19.21;98.78;100060.72;5036802;28;20191;-76
2023/07/29 07:49:37;;;;;;;3.77;2.67;;;19.60;99.90;;;19.23;98.28;100055.06;5036693;28;20210;-76
2023/07/29 07:52:09;;;;;;;2.73;2.53;;;19.60;99.90;;;19.21;97.71;100054.50;5036415;28;20719;-76
2023/07/29 07:54:41;;;;;;;5.40;2.80;;;19.60;99.90;;;19.23;97.47;100052.38;5036578;28;20262;-76
2023/07/29 07:57:13;;;;;;;4.53;2.80;;;19.60;99.90;;;19.26;98.19;100049.19;5036591;28;20195;-76
2023/07/29 07:59:45;;;;;;;3.43;2.63;;;19.60;99.90;;;19.27;97.06;100045.41;5036539;28;20279;-77
2023/07/29 08:02:18;;;;;;;2.97;2.60;;;19.60;99.90;;;19.30;97.68;100041.41;5036170;28;20198;-77
2023/07/29 08:04:50;;;;;;;2.70;2.50;;;19.70;99.90;;;19.32;96.97;100031.94;5036367;28;20317;-77
2023/07/29 08:07:22;;;;;;;2.33;2.10;;;19.70;99.90;;;19.41;97.80;100033.31;5036383;28;20197;-77
2023/07/29 08:09:55;;;;;;;2.63;2.43;;;19.80;99.90;;;19.43;96.77;100039.31;5036320;28;20211;-77
2023/07/29 08:12:28;;;;;;;3.07;2.27;;;19.80;99.90;;;19.46;97.08;100035.31;5036393;28;20281;-77
2023/07/29 08:15:00;;;;;;;2.77;2.20;;;19.80;99.90;;;19.48;96.36;100034.03;5036251;28;20254;-77
2023/07/29 08:17:33;;;;;;;2.53;2.30;;;19.90;99.90;;;19.52;95.60;100029.75;5035947;28;20628;-77
2023/07/29 08:20:05;;;;;;;3.53;2.50;;;19.90;99.90;;;19.58;96.65;100031.56;5036053;28;20649;-77
2023/07/29 08:22:38;;;;;;;2.50;2.30;;;20.00;99.90;;;19.63;96.23;100045.22;5036269;28;20286;-77
2023/07/29 08:25:11;;;;;;;2.53;2.23;;;20.00;99.90;;;19.64;96.21;100046.91;5036116;28;20759;-77
2023/07/29 08:27:43;;;;;;;4.87;2.40;;;20.00;99.90;;;19.71;96.01;100044.88;5035888;28;20249;-77
2023/07/29 08:30:17;;;;;;;2.40;2.20;;;20.10;99.90;;;19.76;95.47;100048.78;5035776;28;20700;-77
2023/07/29 08:32:50;;;;;;;2.93;2.20;;;20.20;99.90;;;19.82;95.09;100034.25;5036168;28;20198;-77
2023/07/29 08:35:22;;;;;;;2.40;2.20;;;20.20;99.90;;;19.85;95.03;100033.78;5035934;28;20250;-77
2023/07/29 08:37:54;;;;;;;3.10;2.20;;;20.30;99.90;;;19.94;95.52;100045.91;5035908;28;20274;-77
2023/07/29 08:40:33;;;;;;;3.10;2.50;;;20.40;99.90;;;19.98;95.38;100047.09;5035882;28;20211;-78
2023/07/29 08:43:07;;;;;;;4.63;2.50;;;20.40;99.90;;;20.02;94.71;100042.84;5035508;28;20306;-77
2023/07/29 08:45:43;;;;;;;5.80;2.60;;;20.40;99.90;;;20.04;94.25;100046.16;5035666;28;20317;-77
2023/07/29 08:48:25;;;;;;;2.60;2.40;;;20.40;99.90;;;20.07;94.48;100043.78;5035676;28;20195;-75
2023/07/29 08:50:58;;;;;;;4.37;2.83;;;20.50;99.90;;;20.13;94.04;100051.00;5034787;28;20645;-76
2023/07/29 08:53:31;;;;;;;2.90;2.70;;;20.50;99.90;;;20.12;92.70;100040.34;5035583;28;20234;-77
2023/07/29 08:56:04;;;;;;;4.23;3.00;;;20.50;99.90;;;20.12;90.95;100048.50;5035186;28;20318;-77
2023/07/29 08:58:38;;;;;;;4.50;3.57;;;20.50;99.90;;;20.14;92.43;100043.66;5035683;28;20191;-77
2023/07/29 09:01:12;;;;;;;4.37;3.07;;;20.50;99.90;;;20.15;91.28;100045.31;5035664;28;20195;-78
2023/07/29 09:03:45;;;;;;;4.37;3.97;;;20.50;99.90;;;20.14;91.41;100032.78;5035506;28;20187;-77
2023/07/29 09:06:20;;;;;;;4.43;3.87;;;20.50;99.90;;;20.14;90.27;100025.44;5035068;28;20569;-77
2023/07/29 09:08:56;;;;;;;5.33;3.40;;;20.50;99.90;;;20.16;90.64;100041.53;5035322;28;20222;-76
2023/07/29 09:11:28;;;;;;;3.27;2.80;;;20.50;99.90;;;20.17;91.13;100044.00;5035233;28;20230;-76
2023/07/29 09:14:00;;;;;;;3.73;3.40;;;20.50;99.90;;;20.17;91.25;100043.19;5035322;28;20290;-77
2023/07/29 09:16:32;;;;;;;3.40;3.20;;;20.50;99.90;;;20.16;91.69;100041.53;5034741;28;20756;-77
2023/07/29 09:19:08;;;;;;;4.43;3.27;;;20.50;99.90;;;20.14;90.51;100044.47;5035123;28;20198;-77
2023/07/29 09:21:47;;;;;;;3.33;2.83;;;20.50;99.90;;;20.12;90.58;100034.91;5034842;28;20260;-77
2023/07/29 09:24:23;;;;;;;3.40;3.10;;;20.40;99.90;;;20.13;90.62;100039.31;5035039;28;20282;-77
2023/07/29 09:26:55;;;;;;;4.67;3.10;;;20.50;99.90;;;20.12;90.23;100032.19;5034491;28;20641;-76
2023/07/29 09:29:36;;;;;;;2.97;2.77;;;20.40;99.90;;;20.14;91.04;100035.50;5034687;28;20230;-76
2023/07/29 09:32:26;;;;;;;3.63;3.10;;;20.50;99.90;;;20.14;90.31;100022.72;5035809;28;20646;-76
2023/07/29 09:34:59;;;;;;;5.33;3.33;;;20.50;99.90;;;20.16;90.58;100014.34;5043480;28;20234;-76
2023/07/29 09:37:32;;;;;;;3.57;3.27;;;20.50;99.90;;;20.19;90.43;100022.03;5060005;28;20217;-76
2023/07/29 09:40:04;;;;;;;4.20;3.20;;;20.50;99.90;;;20.24;89.88;100022.13;5059222;28;20182;-74
2023/07/29 09:42:36;;;;;;;3.33;2.90;;;20.60;99.90;;;20.29;89.03;100021.44;5034985;28;20314;-62
2023/07/29 09:45:08;;;;;;;3.10;2.90;;;20.60;99.90;;;20.41;89.50;100012.16;5034445;28;20624;-76
2023/07/29 09:47:40;;;;;;;3.87;3.57;;;20.70;99.90;;;20.46;87.92;100015.00;5034680;28;20282;-76
2023/07/29 09:50:15;;;;;;;3.40;3.10;;;20.80;99.90;;;20.53;87.14;100009.41;5034602;28;20211;-76
2023/07/29 09:52:50;;;;;;;4.00;3.70;;;20.90;99.90;;;20.60;86.68;100004.66;5034341;28;20194;-76
2023/07/29 09:55:24;;;;;;;4.10;3.80;;;21.00;99.90;;;20.67;86.61;100000.72;5034303;28;20253;-76
2023/07/29 09:58:01;;;;;;;4.30;4.00;;;21.00;99.90;;;20.73;85.45;100002.47;5034593;28;20195;-76
2023/07/29 10:00:33;;;;;;;4.40;4.00;;;21.10;99.90;;;20.77;84.77;100010.13;5034094;28;20247;-76
2023/07/29 10:03:07;;;;;;;4.50;4.10;;;21.10;99.90;;;20.83;85.42;100007.25;5033312;28;20558;-76
2023/07/29 10:05:44;;;;;;;4.47;4.07;;;21.20;99.90;;;20.91;84.69;100006.88;5034524;28;20271;-76
2023/07/29 10:08:17;;;;;;;5.13;4.73;;;21.20;99.90;;;20.92;85.58;100002.25;5034185;28;20345;-76
2023/07/29 10:10:50;;;;;;;5.50;5.00;;;21.30;99.90;;;20.96;84.98;99996.06;5034139;28;20306;-76
2023/07/29 10:13:22;;;;;;;5.30;4.77;;;21.30;99.90;;;20.99;83.58;100001.03;5034011;28;20237;-75
2023/07/29 10:15:56;;;;;;;5.80;5.40;;;21.40;99.90;;;21.02;86.41;100013.31;5033665;28;20776;-75
2023/07/29 10:18:30;;;;;;;6.57;6.07;;;21.30;99.90;;;20.94;86.66;100019.16;5034163;28;20244;-75
2023/07/29 10:21:05;;;;;;;8.13;7.43;;;21.30;99.90;;;20.83;87.66;100020.84;5033923;28;20278;-76
2023/07/29 10:23:44;;;;;;;7.63;6.93;;;21.10;99.90;;;20.73;83.09;100031.56;5034113;28;20277;-76
2023/07/29 10:26:18;;;;;;;9.10;8.00;;;21.10;99.90;;;20.74;83.30;100025.88;5033829;28;20313;-76
2023/07/29 10:28:59;;;;;;;8.00;7.30;;;21.10;99.90;;;20.74;80.88;100028.59;5033879;28;20187;-76
2023/07/29 10:31:33;;;;;;;9.33;8.30;;;21.10;99.90;;;20.82;83.25;100026.56;5033771;28;20318;-76
2023/07/29 10:34:06;;;;;;;8.40;7.70;;;21.10;99.90;;;20.91;80.81;100014.19;5033861;28;20198;-76
2023/07/29 10:36:40;;;;;;;8.30;7.50;;;21.20;99.90;;;21.03;78.44;100009.50;5033439;28;20652;-76